Time;durP1;ratioP1;P1;durP2;ratioP2;P2;SDS_P1;SDS_P2;PMS_P1;PMS_P2;Temp;Humidity;BMP_temperature;BMP_pressure;BME280_temperature;BME280_humidity;BME280_pressure;Samples;Min_cycle;Max_cycle;Signal;HPM_P1;HPM_P2
2022/01/20 07:12:05;;;;;;;7.35;2.40;;;;;;;;;;10617986;28;20016;-83
2022/01/20 07:17:06;;;;;;;4.93;1.20;;;;;;;;;;10587843;28;20062;-83
2022/01/20 07:22:12;;;;;;;5.13;1.38;;;;;;;;;;10577972;28;20390;-83
2022/01/20 07:27:13;;;;;;;3.47;1.30;;;;;;;;;;10579918;28;20023;-83
2022/01/20 07:32:33;;;;;;;5.68;1.70;;;;;;;;;;10578561;28;20032;-84
2022/01/20 07:37:35;;;;;;;4.65;1.38;;;;;;;;;;10576010;28;20528;-83
2022/01/20 07:42:43;;;;;;;5.82;1.65;;;;;;;;;;10593665;28;20024;-83
2022/01/20 07:47:47;;;;;;;5.40;1.50;;;;;;;;;;10595498;28;20461;-82
2022/01/20 07:52:48;;;;;;;5.28;1.60;;;;;;;;;;10568722;28;20055;-83
2022/01/20 07:57:52;;;;;;;4.80;1.33;;;;;;;;;;10576918;28;20020;-83
2022/01/20 08:02:54;;;;;;;5.97;1.42;;;;;;;;;;10524726;28;20059;-85
2022/01/20 08:07:57;;;;;;;6.60;1.75;;;;;;;;;;10553996;28;20032;-85
2022/01/20 08:12:58;;;;;;;7.03;2.08;;;;;;;;;;10539051;28;20051;-83
2022/01/20 08:17:59;;;;;;;8.07;2.45;;;;;;;;;;10534850;28;20361;-82
2022/01/20 08:23:00;;;;;;;;;;;;;;;;;;10535176;28;20044;-81
2022/01/20 08:28:01;;;;;;;8.48;2.58;;;;;;;;;;10555008;28;20411;-83
2022/01/20 08:33:02;;;;;;;6.07;2.30;;;;;;;;;;10536851;28;20024;-83
2022/01/20 08:38:06;;;;;;;;;;;;;;;;;;10558594;22;20068;-80
2022/01/20 08:43:07;;;;;;;7.07;2.60;;;;;;;;;;10510340;28;19911;-80
2022/01/20 08:48:08;;;;;;;7.93;2.08;;;;;;;;;;10533928;28;20020;-81
2022/01/20 08:53:10;;;;;;;8.25;2.08;;;;;;;;;;10534765;28;20035;-79
2022/01/20 08:58:15;;;;;;;4.90;1.83;;;;;;;;;;10531348;28;20032;-79
2022/01/20 09:03:16;;;;;;;6.43;1.90;;;;;;;;;;10531263;28;20016;-79
2022/01/20 09:08:17;;;;;;;;;;;;;;;;;;10549186;28;20427;-79
2022/01/20 09:18:38;;;;;;;6.57;1.80;;;;;;;;;;10548479;28;20036;-79
2022/01/20 09:23:39;;;;;;;;;;;;;;;;;;10530918;28;20051;-79
2022/01/20 09:28:40;;;;;;;4.20;1.33;;;;;;;;;;10528567;28;19915;-79
2022/01/20 09:33:41;;;;;;;;;;;;;;;;;;10532902;28;20122;-79
2022/01/20 09:38:42;;;;;;;5.20;1.58;;;;;;;;;;10549879;28;19915;-79
2022/01/20 09:43:43;;;;;;;5.80;1.83;;;;;;;;;;10546853;28;20028;-79
2022/01/20 09:48:44;;;;;;;;;;;;;;;;;;10527122;28;20040;-80
2022/01/20 09:53:45;;;;;;;9.05;1.88;;;;;;;;;;10533397;28;20336;-80
2022/01/20 09:58:46;;;;;;;;;;;;;;;;;;10539760;28;20020;-79
2022/01/20 10:03:47;;;;;;;6.53;2.28;;;;;;;;;;10535194;28;20296;-79
2022/01/20 10:08:48;;;;;;;;;;;;;;;;;;10540506;28;20032;-79
2022/01/20 10:13:50;;;;;;;5.63;2.40;;;;;;;;;;10543467;28;20010;-79
2022/01/20 10:18:57;;;;;;;6.47;2.33;;;;;;;;;;10545542;28;20028;-81
2022/01/20 10:24:05;;;;;;;6.90;2.63;;;;;;;;;;10536255;28;20101;-79
2022/01/20 10:29:08;;;;;;;5.57;1.80;;;;;;;;;;10555281;28;20546;-80
2022/01/20 10:34:30;;;;;;;6.05;1.77;;;;;;;;;;10536788;28;20054;-80
2022/01/20 10:39:37;;;;;;;5.78;1.98;;;;;;;;;;10552406;28;20082;-78
2022/01/20 10:44:46;;;;;;;6.00;2.42;;;;;;;;;;10534200;28;20051;-77
2022/01/20 10:55:35;;;;;;;6.05;1.95;;;;;;;;;;10553157;28;20024;-82
2022/01/20 11:00:41;;;;;;;6.10;2.08;;;;;;;;;;10532986;28;20028;-82
2022/01/20 11:06:24;;;;;;;4.65;1.70;;;;;;;;;;10555547;28;20024;-82
2022/01/20 11:23:28;;;;;;;4.70;2.30;;;;;;;;;;10430674;28;20025;-82
2022/01/20 11:28:56;;;;;;;6.57;2.60;;;;;;;;;;10536514;28;20032;-82
2022/01/20 11:34:44;;;;;;;7.90;4.05;;;;;;;;;;10553529;28;20059;-82
2022/01/20 11:39:48;;;;;;;8.63;3.50;;;;;;;;;;10531681;28;20047;-83
2022/01/20 11:44:50;;;;;;;8.80;5.43;;;;;;;;;;10526424;28;20043;-83
2022/01/20 11:49:51;;;;;;;7.47;3.90;;;;;;;;;;10526576;28;20024;-83
2022/01/20 11:54:52;;;;;;;8.55;4.18;;;;;;;;;;10540860;28;20119;-82
2022/01/20 11:59:56;;;;;;;10.10;4.18;;;;;;;;;;10540200;28;20048;-82
2022/01/20 12:04:58;;;;;;;9.77;5.18;;;;;;;;;;10542635;28;20085;-82
2022/01/20 12:10:15;;;;;;;7.25;3.35;;;;;;;;;;10546460;28;20024;-81
2022/01/20 12:15:20;;;;;;;7.78;3.53;;;;;;;;;;10564050;28;20084;-82
2022/01/20 12:20:22;;;;;;;7.13;2.60;;;;;;;;;;10544159;28;20030;-82
2022/01/20 12:25:26;;;;;;;6.93;2.88;;;;;;;;;;10538393;28;20032;-79
2022/01/20 12:30:27;;;;;;;7.65;3.30;;;;;;;;;;10554829;28;20054;-80
2022/01/20 12:35:36;;;;;;;7.03;2.80;;;;;;;;;;10533654;28;20020;-80
2022/01/20 12:40:37;;;;;;;7.68;3.03;;;;;;;;;;10533324;28;20027;-81
2022/01/20 12:45:56;;;;;;;6.30;2.45;;;;;;;;;;10534894;28;20039;-81
2022/01/20 12:51:02;;;;;;;5.10;2.22;;;;;;;;;;10535257;28;20036;-81
2022/01/20 12:56:04;;;;;;;6.25;2.55;;;;;;;;;;10534668;28;20032;-81
2022/01/20 13:01:05;;;;;;;8.27;2.22;;;;;;;;;;10554124;28;20095;-81
2022/01/20 13:06:06;;;;;;;;;;;;;;;;;;10559530;28;20035;-83
2022/01/20 13:11:13;;;;;;;5.97;2.53;;;;;;;;;;10569707;28;19912;-82
2022/01/20 13:16:15;;;;;;;7.95;2.30;;;;;;;;;;10541385;28;20031;-83
2022/01/20 13:21:18;;;;;;;6.57;2.20;;;;;;;;;;10554887;28;20092;-81
2022/01/20 13:26:19;;;;;;;5.72;1.80;;;;;;;;;;10534861;28;20031;-81
2022/01/20 13:31:20;;;;;;;;;;;;;;;;;;10532700;28;20477;-78
2022/01/20 13:36:22;;;;;;;6.65;2.70;;;;;;;;;;10550356;28;20283;-79
2022/01/20 13:41:28;;;;;;;5.57;2.30;;;;;;;;;;10548149;28;20102;-81
2022/01/20 13:46:49;;;;;;;5.10;1.90;;;;;;;;;;10540017;28;20122;-83
2022/01/20 13:52:07;;;;;;;4.03;1.58;;;;;;;;;;10559223;28;20035;-80
2022/01/20 13:57:17;;;;;;;5.40;1.90;;;;;;;;;;10537082;28;20024;-83
2022/01/20 14:02:25;;;;;;;6.63;1.50;;;;;;;;;;10536868;28;20024;-83
2022/01/20 14:12:47;;;;;;;;;;;;;;;;;;10556297;28;20063;-82
2022/01/20 14:17:54;;;;;;;2.83;1.60;;;;;;;;;;10554895;28;19908;-80
2022/01/20 14:22:56;;;;;;;5.13;1.80;;;;;;;;;;10532745;28;20032;-79
2022/01/20 14:27:57;;;;;;;3.65;1.60;;;;;;;;;;10530169;28;20043;-80
2022/01/20 14:33:01;;;;;;;3.03;1.40;;;;;;;;;;10531633;28;20031;-78
2022/01/20 14:38:07;;;;;;;4.63;1.50;;;;;;;;;;10503923;22;20041;-80
2022/01/20 14:43:12;;;;;;;4.07;1.30;;;;;;;;;;10445289;28;20032;-80
2022/01/20 14:48:15;;;;;;;7.47;4.07;;;;;;;;;;10452146;28;20044;-79
2022/01/20 14:53:22;;;;;;;7.53;4.00;;;;;;;;;;10509918;28;20046;-83
2022/01/20 14:58:23;;;;;;;;;;;;;;;;;;10510696;28;20081;-82
2022/01/20 15:03:32;;;;;;;6.53;2.92;;;;;;;;;;10489819;28;19904;-83
2022/01/20 15:08:52;;;;;;;5.93;2.17;;;;;;;;;;10493972;28;20033;-83
2022/01/20 15:14:24;;;;;;;7.43;2.90;;;;;;;;;;10501931;28;20085;-85
2022/01/20 15:19:47;;;;;;;6.45;2.47;;;;;;;;;;10509737;28;20052;-81
2022/01/20 15:24:52;;;;;;;6.43;2.42;;;;;;;;;;10510387;28;20044;-80
2022/01/20 15:29:53;;;;;;;6.30;2.42;;;;;;;;;;10508096;28;20032;-80
2022/01/20 15:34:55;;;;;;;7.97;2.72;;;;;;;;;;10500277;28;20039;-80
2022/01/20 15:40:00;;;;;;;5.47;2.08;;;;;;;;;;10495668;28;20048;-81
2022/01/20 15:45:02;;;;;;;4.40;2.17;;;;;;;;;;10496986;28;20052;-81
2022/01/20 15:50:21;;;;;;;5.97;2.00;;;;;;;;;;10498574;28;20464;-81
2022/01/20 15:55:43;;;;;;;5.72;2.35;;;;;;;;;;10505763;28;20546;-79
2022/01/20 16:00:44;;;;;;;4.65;1.77;;;;;;;;;;10479382;28;20040;-80
2022/01/20 16:05:45;;;;;;;;;;;;;;;;;;10515174;28;20032;-80
2022/01/20 16:10:46;;;;;;;6.72;2.22;;;;;;;;;;10494460;28;20321;-79
2022/01/20 16:15:47;;;;;;;15.18;9.63;;;;;;;;;;10493225;28;20119;-79
2022/01/20 16:20:48;;;;;;;5.07;1.52;;;;;;;;;;10497538;28;20048;-79
2022/01/20 16:25:57;;;;;;;4.85;1.77;;;;;;;;;;10502115;28;20035;-80
2022/01/20 16:31:17;;;;;;;4.65;1.70;;;;;;;;;;10515480;28;20099;-82
2022/01/20 16:36:21;;;;;;;5.00;2.05;;;;;;;;;;10501840;28;20051;-82
2022/01/20 16:47:45;;;;;;;;;;;;;;;;;;;;;
2022/01/20 17:21:37;;;;;;;4.60;1.67;;;;;;;;;;10441675;28;20029;-85
2022/01/20 20:38:14;;;;;;;3.65;1.45;;;;;;;;;;10481051;22;20049;-86
2022/01/20 20:43:15;;;;;;;;;;;;;;;;;;10383371;28;20174;-85
2022/01/20 20:48:16;;;;;;;4.82;1.80;;;;;;;;;;10381634;28;20016;-86
2022/01/20 20:53:17;;;;;;;;;;;;;;;;;;10379638;28;20034;-86
2022/01/20 20:58:18;;;;;;;4.60;1.83;;;;;;;;;;10378263;28;19920;-86
2022/01/20 21:03:19;;;;;;;3.33;1.60;;;;;;;;;;10377735;28;20377;-86
2022/01/20 21:08:20;;;;;;;5.22;1.85;;;;;;;;;;10394396;28;20061;-86
2022/01/20 21:13:21;;;;;;;4.03;1.92;;;;;;;;;;10375370;28;20077;-87
